sensor_id;sensor_type;location;lat;lon;timestamp;pressure;altitude;pressure_sealevel;temperature
13497;BMP180;6820;49.374;8.452;2024-02-23T00:01:14;98415.06;;;15.80
13497;BMP180;6820;49.374;8.452;2024-02-23T00:05:16;98428.63;;;15.73
13497;BMP180;6820;49.374;8.452;2024-02-23T00:09:18;98437.94;;;15.68
13497;BMP180;6820;49.374;8.452;2024-02-23T00:13:20;98448.91;;;15.59
13497;BMP180;6820;49.374;8.452;2024-02-23T00:17:21;98464.97;;;15.50
13497;BMP180;6820;49.374;8.452;2024-02-23T00:21:24;98492.16;;;15.46
13497;BMP180;6820;49.374;8.452;2024-02-23T00:25:26;98495.28;;;15.26
13497;BMP180;6820;49.374;8.452;2024-02-23T00:29:28;98478.13;;;15.15
13497;BMP180;6820;49.374;8.452;2024-02-23T00:33:29;98484.66;;;14.96
13497;BMP180;6820;49.374;8.452;2024-02-23T00:37:31;98503.13;;;14.79
13497;BMP180;6820;49.374;8.452;2024-02-23T00:41:37;98492.75;;;14.70
13497;BMP180;6820;49.374;8.452;2024-02-23T00:45:38;98501.25;;;14.71
13497;BMP180;6820;49.374;8.452;2024-02-23T00:49:40;98497.91;;;14.73
13497;BMP180;6820;49.374;8.452;2024-02-23T00:53:42;98511.50;;;14.72
13497;BMP180;6820;49.374;8.452;2024-02-23T00:57:43;98505.59;;;14.76
13497;BMP180;6820;49.374;8.452;2024-02-23T01:01:46;98497.09;;;14.74
13497;BMP180;6820;49.374;8.452;2024-02-23T01:05:48;98502.19;;;14.76
13497;BMP180;6820;49.374;8.452;2024-02-23T01:09:50;98501.31;;;14.74
13497;BMP180;6820;49.374;8.452;2024-02-23T01:13:52;98512.38;;;14.74
13497;BMP180;6820;49.374;8.452;2024-02-23T01:17:53;98526.78;;;14.72
13497;BMP180;6820;49.374;8.452;2024-02-23T01:21:55;98528.44;;;14.70
13497;BMP180;6820;49.374;8.452;2024-02-23T01:26:01;98516.50;;;14.66
13497;BMP180;6820;49.374;8.452;2024-02-23T01:30:04;98540.28;;;14.67
13497;BMP180;6820;49.374;8.452;2024-02-23T01:34:06;98562.34;;;14.65
13497;BMP180;6820;49.374;8.452;2024-02-23T01:38:08;98569.22;;;14.70
13497;BMP180;6820;49.374;8.452;2024-02-23T01:42:10;98582.16;;;14.79
13497;BMP180;6820;49.374;8.452;2024-02-23T01:46:11;98588.19;;;14.87
13497;BMP180;6820;49.374;8.452;2024-02-23T01:50:13;98601.91;;;14.95
13497;BMP180;6820;49.374;8.452;2024-02-23T01:54:15;98635.97;;;14.95
13497;BMP180;6820;49.374;8.452;2024-02-23T01:58:18;98638.31;;;14.85
13497;BMP180;6820;49.374;8.452;2024-02-23T02:02:19;98636.16;;;14.59
13497;BMP180;6820;49.374;8.452;2024-02-23T02:06:22;98645.06;;;14.36
13497;BMP180;6820;49.374;8.452;2024-02-23T02:10:25;98633.03;;;14.28
13497;BMP180;6820;49.374;8.452;2024-02-23T02:14:28;98638.81;;;14.18
13497;BMP180;6820;49.374;8.452;2024-02-23T02:18:32;98636.84;;;14.05
13497;BMP180;6820;49.374;8.452;2024-02-23T02:22:34;98633.28;;;13.98
13497;BMP180;6820;49.374;8.452;2024-02-23T02:26:36;98648.41;;;13.92
13497;BMP180;6820;49.374;8.452;2024-02-23T02:30:38;98644.97;;;13.90
13497;BMP180;6820;49.374;8.452;2024-02-23T02:34:40;98651.03;;;13.96
13497;BMP180;6820;49.374;8.452;2024-02-23T02:38:42;98632.56;;;14.04
13497;BMP180;6820;49.374;8.452;2024-02-23T02:42:44;98626.72;;;14.08
13497;BMP180;6820;49.374;8.452;2024-02-23T02:46:45;98632.06;;;14.23
13497;BMP180;6820;49.374;8.452;2024-02-23T02:50:47;98635.72;;;14.34
13497;BMP180;6820;49.374;8.452;2024-02-23T02:54:54;98624.03;;;14.45
13497;BMP180;6820;49.374;8.452;2024-02-23T02:58:56;98633.56;;;14.58
13497;BMP180;6820;49.374;8.452;2024-02-23T03:02:57;98629.50;;;14.67
13497;BMP180;6820;49.374;8.452;2024-02-23T03:06:59;98630.50;;;14.75
13497;BMP180;6820;49.374;8.452;2024-02-23T03:11:01;98642.53;;;14.83
13497;BMP180;6820;49.374;8.452;2024-02-23T03:15:03;98645.94;;;14.84
13497;BMP180;6820;49.374;8.452;2024-02-23T03:19:05;98651.88;;;14.83
13497;BMP180;6820;49.374;8.452;2024-02-23T03:23:09;98650.19;;;14.83
13497;BMP180;6820;49.374;8.452;2024-02-23T03:27:11;98656.03;;;14.78
13497;BMP180;6820;49.374;8.452;2024-02-23T03:31:13;98650.09;;;14.77
13497;BMP180;6820;49.374;8.452;2024-02-23T03:35:15;98660.34;;;14.80
13497;BMP180;6820;49.374;8.452;2024-02-23T03:39:16;98654.56;;;14.92
13497;BMP180;6820;49.374;8.452;2024-02-23T03:43:18;98659.00;;;15.03
13497;BMP180;6820;49.374;8.452;2024-02-23T03:47:20;98651.31;;;14.98
13497;BMP180;6820;49.374;8.452;2024-02-23T03:51:21;98662.31;;;14.97
13497;BMP180;6820;49.374;8.452;2024-02-23T03:55:23;98663.22;;;14.99
13497;BMP180;6820;49.374;8.452;2024-02-23T03:59:24;98659.72;;;14.94
13497;BMP180;6820;49.374;8.452;2024-02-23T04:03:26;98652.91;;;14.95
13497;BMP180;6820;49.374;8.452;2024-02-23T04:07:28;98656.97;;;14.83
13497;BMP180;6820;49.374;8.452;2024-02-23T04:11:30;98661.84;;;14.69
13497;BMP180;6820;49.374;8.452;2024-02-23T04:15:32;98669.31;;;14.61
13497;BMP180;6820;49.374;8.452;2024-02-23T04:19:33;98676.09;;;14.59
13497;BMP180;6820;49.374;8.452;2024-02-23T04:23:35;98680.25;;;14.55
13497;BMP180;6820;49.374;8.452;2024-02-23T04:27:37;98686.88;;;14.46
13497;BMP180;6820;49.374;8.452;2024-02-23T04:31:39;98701.13;;;14.35
13497;BMP180;6820;49.374;8.452;2024-02-23T04:35:40;98713.75;;;14.31
13497;BMP180;6820;49.374;8.452;2024-02-23T04:39:43;98713.75;;;14.29
13497;BMP180;6820;49.374;8.452;2024-02-23T04:43:45;98712.94;;;14.33
13497;BMP180;6820;49.374;8.452;2024-02-23T04:47:47;98700.31;;;14.39
13497;BMP180;6820;49.374;8.452;2024-02-23T04:51:49;98697.94;;;14.46
13497;BMP180;6820;49.374;8.452;2024-02-23T04:55:51;98702.28;;;14.52
13497;BMP180;6820;49.374;8.452;2024-02-23T04:59:53;98699.78;;;14.55
13497;BMP180;6820;49.374;8.452;2024-02-23T05:03:54;98702.47;;;14.62
13497;BMP180;6820;49.374;8.452;2024-02-23T05:07:56;98699.13;;;14.64
13497;BMP180;6820;49.374;8.452;2024-02-23T05:11:57;98690.59;;;14.62
13497;BMP180;6820;49.374;8.452;2024-02-23T05:15:59;98693.88;;;14.56
13497;BMP180;6820;49.374;8.452;2024-02-23T05:20:01;98688.47;;;14.41
13497;BMP180;6820;49.374;8.452;2024-02-23T05:24:11;98695.06;;;14.30
13497;BMP180;6820;49.374;8.452;2024-02-23T05:28:13;98697.50;;;14.26
13497;BMP180;6820;49.374;8.452;2024-02-23T05:32:14;98695.84;;;14.28
13497;BMP180;6820;49.374;8.452;2024-02-23T05:36:17;98701.75;;;14.25
13497;BMP180;6820;49.374;8.452;2024-02-23T05:40:20;98711.13;;;14.26
13497;BMP180;6820;49.374;8.452;2024-02-23T05:44:22;98712.00;;;14.28
13497;BMP180;6820;49.374;8.452;2024-02-23T05:48:24;98711.25;;;14.32
13497;BMP180;6820;49.374;8.452;2024-02-23T05:52:25;98718.03;;;14.33
13497;BMP180;6820;49.374;8.452;2024-02-23T05:56:27;98726.75;;;14.42
13497;BMP180;6820;49.374;8.452;2024-02-23T06:00:29;98726.81;;;14.47
13497;BMP180;6820;49.374;8.452;2024-02-23T06:04:32;98735.44;;;14.53
13497;BMP180;6820;49.374;8.452;2024-02-23T06:08:35;98755.75;;;14.49
13497;BMP180;6820;49.374;8.452;2024-02-23T06:12:37;98758.34;;;14.52
13497;BMP180;6820;49.374;8.452;2024-02-23T06:16:39;98759.19;;;14.51
13497;BMP180;6820;49.374;8.452;2024-02-23T06:20:42;98769.41;;;14.52
13497;BMP180;6820;49.374;8.452;2024-02-23T06:24:43;98762.59;;;14.51
13497;BMP180;6820;49.374;8.452;2024-02-23T06:28:45;98765.97;;;14.50
13497;BMP180;6820;49.374;8.452;2024-02-23T06:32:47;98767.59;;;14.47
13497;BMP180;6820;49.374;8.452;2024-02-23T06:36:49;98770.06;;;14.44
13497;BMP180;6820;49.374;8.452;2024-02-23T06:40:51;98772.63;;;14.42
13497;BMP180;6820;49.374;8.452;2024-02-23T06:44:53;98777.66;;;14.41
13497;BMP180;6820;49.374;8.452;2024-02-23T06:48:55;98779.34;;;14.40
13497;BMP180;6820;49.374;8.452;2024-02-23T06:52:57;98770.75;;;14.34
13497;BMP180;6820;49.374;8.452;2024-02-23T06:56:59;98770.53;;;14.25
13497;BMP180;6820;49.374;8.452;2024-02-23T07:01:01;98773.69;;;14.14
13497;BMP180;6820;49.374;8.452;2024-02-23T07:05:05;98779.47;;;14.07
13497;BMP180;6820;49.374;8.452;2024-02-23T07:09:06;98782.72;;;14.00
13497;BMP180;6820;49.374;8.452;2024-02-23T07:13:09;98776.84;;;14.02
13497;BMP180;6820;49.374;8.452;2024-02-23T07:17:11;98775.03;;;13.97
13497;BMP180;6820;49.374;8.452;2024-02-23T07:21:13;98782.66;;;13.97
13497;BMP180;6820;49.374;8.452;2024-02-23T07:25:18;98778.25;;;13.92
13497;BMP180;6820;49.374;8.452;2024-02-23T07:29:22;98783.09;;;13.81
13497;BMP180;6820;49.374;8.452;2024-02-23T07:33:23;98788.16;;;13.80
13497;BMP180;6820;49.374;8.452;2024-02-23T07:37:28;98786.38;;;13.76
13497;BMP180;6820;49.374;8.452;2024-02-23T07:41:30;98783.09;;;13.81
13497;BMP180;6820;49.374;8.452;2024-02-23T07:45:32;98783.31;;;13.90
13497;BMP180;6820;49.374;8.452;2024-02-23T07:49:35;98781.88;;;14.01
13497;BMP180;6820;49.374;8.452;2024-02-23T07:53:37;98786.03;;;14.34
13497;BMP180;6820;49.374;8.452;2024-02-23T07:57:39;98796.75;;;14.61
13497;BMP180;6820;49.374;8.452;2024-02-23T08:01:41;98782.78;;;14.83
13497;BMP180;6820;49.374;8.452;2024-02-23T08:05:43;98777.06;;;14.97
13497;BMP180;6820;49.374;8.452;2024-02-23T08:09:44;98782.44;;;15.09
13497;BMP180;6820;49.374;8.452;2024-02-23T08:13:46;98787.72;;;15.18
13497;BMP180;6820;49.374;8.452;2024-02-23T08:17:48;98786.06;;;15.22
13497;BMP180;6820;49.374;8.452;2024-02-23T08:21:49;98793.91;;;15.32
13497;BMP180;6820;49.374;8.452;2024-02-23T08:25:51;98796.63;;;15.41
13497;BMP180;6820;49.374;8.452;2024-02-23T08:29:55;98800.97;;;15.46
13497;BMP180;6820;49.374;8.452;2024-02-23T08:33:57;98787.63;;;15.62
13497;BMP180;6820;49.374;8.452;2024-02-23T08:37:58;98782.66;;;15.71
13497;BMP180;6820;49.374;8.452;2024-02-23T08:42:00;98791.28;;;15.79
13497;BMP180;6820;49.374;8.452;2024-02-23T08:46:02;98788.81;;;15.84
13497;BMP180;6820;49.374;8.452;2024-02-23T08:50:10;98776.22;;;15.96
13497;BMP180;6820;49.374;8.452;2024-02-23T08:54:12;98767.88;;;16.09
13497;BMP180;6820;49.374;8.452;2024-02-23T08:58:13;98763.00;;;16.21
13497;BMP180;6820;49.374;8.452;2024-02-23T09:02:15;98754.50;;;16.23
13497;BMP180;6820;49.374;8.452;2024-02-23T09:06:17;98762.19;;;16.25
13497;BMP180;6820;49.374;8.452;2024-02-23T09:10:18;98758.75;;;16.23
13497;BMP180;6820;49.374;8.452;2024-02-23T09:14:20;98762.88;;;16.15
13497;BMP180;6820;49.374;8.452;2024-02-23T09:18:22;98749.78;;;15.93
13497;BMP180;6820;49.374;8.452;2024-02-23T09:22:23;98755.53;;;15.79
13497;BMP180;6820;49.374;8.452;2024-02-23T09:26:25;98746.94;;;15.74
13497;BMP180;6820;49.374;8.452;2024-02-23T09:30:27;98742.59;;;15.68
13497;BMP180;6820;49.374;8.452;2024-02-23T09:34:29;98748.44;;;15.60
13497;BMP180;6820;49.374;8.452;2024-02-23T09:38:31;98746.94;;;15.74
13497;BMP180;6820;49.374;8.452;2024-02-23T09:42:35;98742.59;;;16.25
13497;BMP180;6820;49.374;8.452;2024-02-23T09:46:40;98742.91;;;16.49
13497;BMP180;6820;49.374;8.452;2024-02-23T09:50:43;98734.66;;;16.72
13497;BMP180;6820;49.374;8.452;2024-02-23T09:54:46;98737.44;;;16.93
13497;BMP180;6820;49.374;8.452;2024-02-23T09:58:48;98739.44;;;17.20
13497;BMP180;6820;49.374;8.452;2024-02-23T10:02:50;98731.09;;;17.42
13497;BMP180;6820;49.374;8.452;2024-02-23T10:06:52;98728.56;;;17.51
13497;BMP180;6820;49.374;8.452;2024-02-23T10:10:55;98727.56;;;17.30
13497;BMP180;6820;49.374;8.452;2024-02-23T10:14:57;98718.75;;;17.01
13497;BMP180;6820;49.374;8.452;2024-02-23T10:18:59;98729.69;;;16.88
13497;BMP180;6820;49.374;8.452;2024-02-23T10:23:00;98730.56;;;16.89
13497;BMP180;6820;49.374;8.452;2024-02-23T10:27:02;98723.03;;;17.04
13497;BMP180;6820;49.374;8.452;2024-02-23T10:31:07;98729.69;;;16.90
13497;BMP180;6820;49.374;8.452;2024-02-23T10:35:15;98725.63;;;17.07
13497;BMP180;6820;49.374;8.452;2024-02-23T10:39:18;98726.03;;;17.49
13497;BMP180;6820;49.374;8.452;2024-02-23T10:43:33;98732.16;;;17.70
13497;BMP180;6820;49.374;8.452;2024-02-23T10:47:37;98726.31;;;17.89
13497;BMP180;6820;49.374;8.452;2024-02-23T10:51:39;98725.47;;;17.93
13497;BMP180;6820;49.374;8.452;2024-02-23T10:55:43;98718.78;;;18.10
13497;BMP180;6820;49.374;8.452;2024-02-23T10:59:47;98736.81;;;18.35
13497;BMP180;6820;49.374;8.452;2024-02-23T11:03:49;98712.97;;;18.48
13497;BMP180;6820;49.374;8.452;2024-02-23T11:07:55;98709.56;;;18.53
13497;BMP180;6820;49.374;8.452;2024-02-23T11:11:58;98699.28;;;18.52
13497;BMP180;6820;49.374;8.452;2024-02-23T11:16:02;98700.09;;;18.43
13497;BMP180;6820;49.374;8.452;2024-02-23T11:20:05;98687.22;;;18.30
13497;BMP180;6820;49.374;8.452;2024-02-23T11:24:07;98691.53;;;18.37
13497;BMP180;6820;49.374;8.452;2024-02-23T11:28:09;98686.41;;;18.38
13497;BMP180;6820;49.374;8.452;2024-02-23T11:32:14;98684.69;;;18.37
13497;BMP180;6820;49.374;8.452;2024-02-23T11:36:29;98685.59;;;18.45
13497;BMP180;6820;49.374;8.452;2024-02-23T11:40:31;98688.97;;;18.38
13497;BMP180;6820;49.374;8.452;2024-02-23T11:44:33;98698.41;;;18.39
13497;BMP180;6820;49.374;8.452;2024-02-23T11:48:35;98689.78;;;18.30
13497;BMP180;6820;49.374;8.452;2024-02-23T11:52:37;98708.53;;;18.14
13497;BMP180;6820;49.374;8.452;2024-02-23T11:56:40;98699.75;;;17.77
13497;BMP180;6820;49.374;8.452;2024-02-23T12:00:42;98700.66;;;17.88
13497;BMP180;6820;49.374;8.452;2024-02-23T12:04:44;98699.94;;;18.05
13497;BMP180;6820;49.374;8.452;2024-02-23T12:08:45;98691.44;;;18.13
13497;BMP180;6820;49.374;8.452;2024-02-23T12:12:48;98712.78;;;18.08
13497;BMP180;6820;49.374;8.452;2024-02-23T12:16:51;98714.16;;;17.63
13497;BMP180;6820;49.374;8.452;2024-02-23T12:20:53;98708.59;;;17.08
13497;BMP180;6820;49.374;8.452;2024-02-23T12:24:59;98707.06;;;16.46
13497;BMP180;6820;49.374;8.452;2024-02-23T12:29:02;98695.00;;;16.36
13497;BMP180;6820;49.374;8.452;2024-02-23T12:33:06;98690.94;;;16.50
13497;BMP180;6820;49.374;8.452;2024-02-23T12:37:09;98696.28;;;16.72
13497;BMP180;6820;49.374;8.452;2024-02-23T12:41:11;98700.13;;;17.14
13497;BMP180;6820;49.374;8.452;2024-02-23T12:45:13;98691.94;;;17.58
13497;BMP180;6820;49.374;8.452;2024-02-23T12:49:14;98689.56;;;17.87
13497;BMP180;6820;49.374;8.452;2024-02-23T12:57:36;98668.25;;;17.96
13497;BMP180;6820;49.374;8.452;2024-02-23T13:01:37;98673.31;;;17.82
13497;BMP180;6820;49.374;8.452;2024-02-23T13:05:46;98671.56;;;17.80
13497;BMP180;6820;49.374;8.452;2024-02-23T13:09:48;98674.28;;;18.03
13497;BMP180;6820;49.374;8.452;2024-02-23T13:13:50;98665.84;;;18.25
13497;BMP180;6820;49.374;8.452;2024-02-23T13:17:51;98661.66;;;18.42
13497;BMP180;6820;49.374;8.452;2024-02-23T13:21:53;98659.09;;;18.51
13497;BMP180;6820;49.374;8.452;2024-02-23T13:25:55;98655.69;;;18.47
13497;BMP180;6820;49.374;8.452;2024-02-23T13:29:56;98653.91;;;18.30
13497;BMP180;6820;49.374;8.452;2024-02-23T13:33:58;98666.66;;;18.11
13497;BMP180;6820;49.374;8.452;2024-02-23T13:38:00;98651.28;;;18.14
13497;BMP180;6820;49.374;8.452;2024-02-23T13:42:05;98650.44;;;18.22
13497;BMP180;6820;49.374;8.452;2024-02-23T13:46:06;98651.25;;;18.08
13497;BMP180;6820;49.374;8.452;2024-02-23T13:50:09;98660.56;;;17.91
13497;BMP180;6820;49.374;8.452;2024-02-23T13:54:10;98663.97;;;17.89
13497;BMP180;6820;49.374;8.452;2024-02-23T13:58:12;98656.28;;;17.93
13497;BMP180;6820;49.374;8.452;2024-02-23T14:02:14;98645.25;;;18.06
13497;BMP180;6820;49.374;8.452;2024-02-23T14:06:16;98643.59;;;18.14
13497;BMP180;6820;49.374;8.452;2024-02-23T14:10:18;98632.50;;;18.16
13497;BMP180;6820;49.374;8.452;2024-02-23T14:14:19;98630.78;;;18.17
13497;BMP180;6820;49.374;8.452;2024-02-23T14:18:21;98637.66;;;18.21
13497;BMP180;6820;49.374;8.452;2024-02-23T14:22:23;98627.34;;;18.18
13497;BMP180;6820;49.374;8.452;2024-02-23T14:26:25;98618.81;;;18.20
13497;BMP180;6820;49.374;8.452;2024-02-23T14:30:26;98615.41;;;18.18
13497;BMP180;6820;49.374;8.452;2024-02-23T14:34:29;98607.72;;;18.26
13497;BMP180;6820;49.374;8.452;2024-02-23T14:38:31;98596.69;;;18.50
13497;BMP180;6820;49.374;8.452;2024-02-23T14:42:33;98600.09;;;18.46
13497;BMP180;6820;49.374;8.452;2024-02-23T14:46:35;98593.25;;;18.54
13497;BMP180;6820;49.374;8.452;2024-02-23T14:50:37;98603.50;;;18.47
13497;BMP180;6820;49.374;8.452;2024-02-23T14:54:38;98599.22;;;18.35
13497;BMP180;6820;49.374;8.452;2024-02-23T14:58:40;98596.59;;;18.10
13497;BMP180;6820;49.374;8.452;2024-02-23T15:02:42;98607.59;;;17.96
13497;BMP180;6820;49.374;8.452;2024-02-23T15:06:44;98598.19;;;17.89
13497;BMP180;6820;49.374;8.452;2024-02-23T15:10:46;98601.59;;;17.90
13497;BMP180;6820;49.374;8.452;2024-02-23T15:14:48;98602.47;;;17.93
13497;BMP180;6820;49.374;8.452;2024-02-23T15:18:49;98603.34;;;18.01
13497;BMP180;6820;49.374;8.452;2024-02-23T15:22:51;98602.59;;;18.18
13497;BMP180;6820;49.374;8.452;2024-02-23T15:26:53;98609.53;;;18.62
13497;BMP180;6820;49.374;8.452;2024-02-23T15:30:54;98594.97;;;18.42
13497;BMP180;6820;49.374;8.452;2024-02-23T15:34:56;98588.06;;;18.16
13497;BMP180;6820;49.374;8.452;2024-02-23T15:39:01;98591.38;;;17.94
13497;BMP180;6820;49.374;8.452;2024-02-23T15:43:18;98591.31;;;17.78
13497;BMP180;6820;49.374;8.452;2024-02-23T15:47:28;98590.38;;;17.60
13497;BMP180;6820;49.374;8.452;2024-02-23T15:51:30;98591.19;;;17.56
13497;BMP180;6820;49.374;8.452;2024-02-23T15:55:52;98585.25;;;17.63
13497;BMP180;6820;49.374;8.452;2024-02-23T15:59:54;98595.50;;;17.60
13497;BMP180;6820;49.374;8.452;2024-02-23T16:04:05;98593.78;;;17.63
13497;BMP180;6820;49.374;8.452;2024-02-23T16:08:08;98588.69;;;17.66
13497;BMP180;6820;49.374;8.452;2024-02-23T16:12:13;98592.94;;;17.67
13497;BMP180;6820;49.374;8.452;2024-02-23T16:16:15;98586.06;;;17.59
13497;BMP180;6820;49.374;8.452;2024-02-23T16:20:16;98589.47;;;17.49
13497;BMP180;6820;49.374;8.452;2024-02-23T16:24:18;98580.03;;;17.45
13497;BMP180;6820;49.374;8.452;2024-02-23T16:28:21;98590.28;;;17.45
13497;BMP180;6820;49.374;8.452;2024-02-23T16:32:22;98580.88;;;17.45
13497;BMP180;6820;49.374;8.452;2024-02-23T16:36:24;98583.41;;;17.39
13497;BMP180;6820;49.374;8.452;2024-02-23T16:40:26;98590.19;;;17.32
13497;BMP180;6820;49.374;8.452;2024-02-23T16:44:30;98591.00;;;17.26
13497;BMP180;6820;49.374;8.452;2024-02-23T16:48:32;98590.97;;;17.20
13497;BMP180;6820;49.374;8.452;2024-02-23T16:52:34;98588.38;;;17.11
13497;BMP180;6820;49.374;8.452;2024-02-23T16:56:35;98584.03;;;17.07
13497;BMP180;6820;49.374;8.452;2024-02-23T17:00:37;98586.53;;;16.99
13497;BMP180;6820;49.374;8.452;2024-02-23T17:04:39;98584.78;;;16.93
13497;BMP180;6820;49.374;8.452;2024-02-23T17:08:41;98588.16;;;16.89
13497;BMP180;6820;49.374;8.452;2024-02-23T17:12:43;98600.03;;;16.84
13497;BMP180;6820;49.374;8.452;2024-02-23T17:16:50;98596.53;;;16.72
13497;BMP180;6820;49.374;8.452;2024-02-23T17:20:52;98593.00;;;16.60
13497;BMP180;6820;49.374;8.452;2024-02-23T17:24:59;98601.44;;;16.48
13497;BMP180;6820;49.374;8.452;2024-02-23T17:29:02;98603.09;;;16.46
13497;BMP180;6820;49.374;8.452;2024-02-23T17:33:03;98592.84;;;16.44
13497;BMP180;6820;49.374;8.452;2024-02-23T17:37:05;98609.09;;;16.48
13497;BMP180;6820;49.374;8.452;2024-02-23T17:41:08;98608.25;;;16.48
13497;BMP180;6820;49.374;8.452;2024-02-23T17:45:10;98609.88;;;16.42
13497;BMP180;6820;49.374;8.452;2024-02-23T17:49:12;98609.00;;;16.37
13497;BMP180;6820;49.374;8.452;2024-02-23T17:53:14;98612.38;;;16.34
13497;BMP180;6820;49.374;8.452;2024-02-23T17:57:15;98612.34;;;16.33
13497;BMP180;6820;49.374;8.452;2024-02-23T18:01:18;98616.66;;;16.37
13497;BMP180;6820;49.374;8.452;2024-02-23T18:05:21;98621.66;;;16.26
13497;BMP180;6820;49.374;8.452;2024-02-23T18:09:23;98631.75;;;16.16
13497;BMP180;6820;49.374;8.452;2024-02-23T18:13:25;98637.63;;;16.11
13497;BMP180;6820;49.374;8.452;2024-02-23T18:17:26;98640.88;;;15.98
13497;BMP180;6820;49.374;8.452;2024-02-23T18:21:30;98638.22;;;15.90
13497;BMP180;6820;49.374;8.452;2024-02-23T18:25:31;98642.38;;;15.81
13497;BMP180;6820;49.374;8.452;2024-02-23T18:29:33;98643.91;;;15.72
13497;BMP180;6820;49.374;8.452;2024-02-23T18:33:35;98646.38;;;15.64
13497;BMP180;6820;49.374;8.452;2024-02-23T18:37:38;98653.97;;;15.60
13497;BMP180;6820;49.374;8.452;2024-02-23T18:41:39;98652.22;;;15.56
13497;BMP180;6820;49.374;8.452;2024-02-23T18:45:41;98655.41;;;15.43
13497;BMP180;6820;49.374;8.452;2024-02-23T18:49:43;98654.47;;;15.35
13497;BMP180;6820;49.374;8.452;2024-02-23T18:53:44;98664.56;;;15.29
13497;BMP180;6820;49.374;8.452;2024-02-23T18:57:46;98663.53;;;15.17
13497;BMP180;6820;49.374;8.452;2024-02-23T19:01:48;98665.13;;;15.09
13497;BMP180;6820;49.374;8.452;2024-02-23T19:05:49;98656.41;;;15.00
13497;BMP180;6820;49.374;8.452;2024-02-23T19:09:51;98664.84;;;14.96
13497;BMP180;6820;49.374;8.452;2024-02-23T19:13:53;98663.88;;;14.90
13497;BMP180;6820;49.374;8.452;2024-02-23T19:17:55;98651.84;;;14.81
13497;BMP180;6820;49.374;8.452;2024-02-23T19:21:56;98663.59;;;14.73
13497;BMP180;6820;49.374;8.452;2024-02-23T19:25:58;98646.50;;;14.66
13497;BMP180;6820;49.374;8.452;2024-02-23T19:30:00;98649.84;;;14.64
13497;BMP180;6820;49.374;8.452;2024-02-23T19:34:05;98652.31;;;14.60
13497;BMP180;6820;49.374;8.452;2024-02-23T19:38:07;98665.84;;;14.56
13497;BMP180;6820;49.374;8.452;2024-02-23T19:42:09;98655.47;;;14.47
13497;BMP180;6820;49.374;8.452;2024-02-23T19:46:11;98658.00;;;14.47
13497;BMP180;6820;49.374;8.452;2024-02-23T19:50:18;98658.84;;;14.46
13497;BMP180;6820;49.374;8.452;2024-02-23T19:54:20;98662.16;;;14.42
13497;BMP180;6820;49.374;8.452;2024-02-23T19:58:21;98660.44;;;14.39
13497;BMP180;6820;49.374;8.452;2024-02-23T20:02:23;98658.66;;;14.34
13497;BMP180;6820;49.374;8.452;2024-02-23T20:06:24;98657.66;;;14.28
13497;BMP180;6820;49.374;8.452;2024-02-23T20:10:26;98655.00;;;14.22
13497;BMP180;6820;49.374;8.452;2024-02-23T20:14:28;98655.75;;;14.18
13497;BMP180;6820;49.374;8.452;2024-02-23T20:18:29;98652.28;;;14.14
13497;BMP180;6820;49.374;8.452;2024-02-23T20:22:31;98658.16;;;14.10
13497;BMP180;6820;49.374;8.452;2024-02-23T20:26:33;98659.81;;;14.08
13497;BMP180;6820;49.374;8.452;2024-02-23T20:30:34;98647.84;;;14.04
13497;BMP180;6820;49.374;8.452;2024-02-23T20:34:36;98656.25;;;14.01
13497;BMP180;6820;49.374;8.452;2024-02-23T20:38:38;98659.56;;;13.97
13497;BMP180;6820;49.374;8.452;2024-02-23T20:42:40;98657.69;;;13.90
13497;BMP180;6820;49.374;8.452;2024-02-23T20:46:42;98658.44;;;13.84
13497;BMP180;6820;49.374;8.452;2024-02-23T20:50:43;98661.78;;;13.82
13497;BMP180;6820;49.374;8.452;2024-02-23T20:54:45;98660.94;;;13.83
13497;BMP180;6820;49.374;8.452;2024-02-23T20:58:50;98668.50;;;13.78
13497;BMP180;6820;49.374;8.452;2024-02-23T21:02:52;98675.19;;;13.75
13497;BMP180;6820;49.374;8.452;2024-02-23T21:06:54;98676.81;;;13.71
13497;BMP180;6820;49.374;8.452;2024-02-23T21:10:55;98679.41;;;13.73
13497;BMP180;6820;49.374;8.452;2024-02-23T21:14:57;98674.34;;;13.74
13497;BMP180;6820;49.374;8.452;2024-02-23T21:18:58;98679.41;;;13.73
13497;BMP180;6820;49.374;8.452;2024-02-23T21:23:00;98678.41;;;13.67
13497;BMP180;6820;49.374;8.452;2024-02-23T21:27:02;98686.75;;;13.61
13497;BMP180;6820;49.374;8.452;2024-02-23T21:31:04;98691.84;;;13.61
13497;BMP180;6820;49.374;8.452;2024-02-23T21:35:06;98674.94;;;13.65
13497;BMP180;6820;49.374;8.452;2024-02-23T21:39:08;98679.13;;;13.60
13497;BMP180;6820;49.374;8.452;2024-02-23T21:43:10;98678.22;;;13.59
13497;BMP180;6820;49.374;8.452;2024-02-23T21:47:11;98668.03;;;13.59
13497;BMP180;6820;49.374;8.452;2024-02-23T21:51:14;98675.84;;;13.65
13497;BMP180;6820;49.374;8.452;2024-02-23T21:55:16;98681.06;;;13.72
13497;BMP180;6820;49.374;8.452;2024-02-23T21:59:18;98681.22;;;13.78
13497;BMP180;6820;49.374;8.452;2024-02-23T22:03:19;98672.75;;;13.79
13497;BMP180;6820;49.374;8.452;2024-02-23T22:07:25;98681.94;;;13.73
13497;BMP180;6820;49.374;8.452;2024-02-23T22:11:27;98685.22;;;13.68
13497;BMP180;6820;49.374;8.452;2024-02-23T22:15:29;98675.91;;;13.68
13497;BMP180;6820;49.374;8.452;2024-02-23T22:19:30;98692.69;;;13.60
13497;BMP180;6820;49.374;8.452;2024-02-23T22:23:32;98694.19;;;13.52
13497;BMP180;6820;49.374;8.452;2024-02-23T22:27:33;98694.88;;;13.45
13497;BMP180;6820;49.374;8.452;2024-02-23T22:31:36;98692.97;;;13.37
13497;BMP180;6820;49.374;8.452;2024-02-23T22:35:37;98691.13;;;13.30
13497;BMP180;6820;49.374;8.452;2024-02-23T22:39:39;98691.88;;;13.26
13497;BMP180;6820;49.374;8.452;2024-02-23T22:43:42;98707.06;;;13.23
13497;BMP180;6820;49.374;8.452;2024-02-23T22:47:43;98712.16;;;13.23
13497;BMP180;6820;49.374;8.452;2024-02-23T22:51:45;98721.72;;;13.33
13497;BMP180;6820;49.374;8.452;2024-02-23T22:55:47;98725.13;;;13.34
13497;BMP180;6820;49.374;8.452;2024-02-23T22:59:49;98728.59;;;13.37
13497;BMP180;6820;49.374;8.452;2024-02-23T23:03:51;98732.84;;;13.37
13497;BMP180;6820;49.374;8.452;2024-02-23T23:07:52;98719.97;;;13.31
13497;BMP180;6820;49.374;8.452;2024-02-23T23:11:54;98723.00;;;13.16
13497;BMP180;6820;49.374;8.452;2024-02-23T23:15:56;98715.16;;;13.08
13497;BMP180;6820;49.374;8.452;2024-02-23T23:19:58;98714.16;;;13.01
13497;BMP180;6820;49.374;8.452;2024-02-23T23:24:05;98708.22;;;13.01
13497;BMP180;6820;49.374;8.452;2024-02-23T23:28:07;98723.47;;;13.02
13497;BMP180;6820;49.374;8.452;2024-02-23T23:32:09;98726.97;;;13.06
13497;BMP180;6820;49.374;8.452;2024-02-23T23:36:11;98720.25;;;13.08
13497;BMP180;6820;49.374;8.452;2024-02-23T23:40:13;98730.41;;;13.08